sensor_id;sensor_type;location;lat;lon;timestamp;P1;durP1;ratioP1;P2;durP2;ratioP2
77040;SDS011;65974;42.664;23.264;2023-07-28T00:01:59;4.78;;;3.03;;
77040;SDS011;65974;42.664;23.264;2023-07-28T00:04:25;5.20;;;3.00;;
77040;SDS011;65974;42.664;23.264;2023-07-28T00:06:50;7.20;;;2.83;;
77040;SDS011;65974;42.664;23.264;2023-07-28T00:09:16;4.10;;;3.22;;
77040;SDS011;65974;42.664;23.264;2023-07-28T00:11:41;5.22;;;3.55;;
77040;SDS011;65974;42.664;23.264;2023-07-28T00:14:07;2.63;;;2.17;;
77040;SDS011;65974;42.664;23.264;2023-07-28T00:16:32;4.25;;;3.30;;
77040;SDS011;65974;42.664;23.264;2023-07-28T00:18:58;5.38;;;3.13;;
77040;SDS011;65974;42.664;23.264;2023-07-28T00:21:23;3.92;;;2.80;;
77040;SDS011;65974;42.664;23.264;2023-07-28T00:23:48;4.82;;;3.03;;
77040;SDS011;65974;42.664;23.264;2023-07-28T00:26:14;3.92;;;3.20;;
77040;SDS011;65974;42.664;23.264;2023-07-28T00:28:39;4.65;;;3.33;;
77040;SDS011;65974;42.664;23.264;2023-07-28T00:31:05;4.90;;;2.92;;
77040;SDS011;65974;42.664;23.264;2023-07-28T00:33:30;3.97;;;3.33;;
77040;SDS011;65974;42.664;23.264;2023-07-28T00:35:55;4.10;;;2.70;;
77040;SDS011;65974;42.664;23.264;2023-07-28T00:38:21;5.90;;;3.50;;
77040;SDS011;65974;42.664;23.264;2023-07-28T00:40:46;5.82;;;3.40;;
77040;SDS011;65974;42.664;23.264;2023-07-28T00:43:12;3.33;;;2.60;;
77040;SDS011;65974;42.664;23.264;2023-07-28T00:45:37;4.70;;;2.72;;
77040;SDS011;65974;42.664;23.264;2023-07-28T00:48:04;3.53;;;2.95;;
77040;SDS011;65974;42.664;23.264;2023-07-28T00:50:42;6.53;;;3.58;;
77040;SDS011;65974;42.664;23.264;2023-07-28T00:53:10;3.80;;;3.03;;
77040;SDS011;65974;42.664;23.264;2023-07-28T00:55:36;4.43;;;3.05;;
77040;SDS011;65974;42.664;23.264;2023-07-28T00:58:03;4.07;;;2.78;;
77040;SDS011;65974;42.664;23.264;2023-07-28T01:00:28;6.03;;;3.88;;
77040;SDS011;65974;42.664;23.264;2023-07-28T01:02:54;5.43;;;3.33;;
77040;SDS011;65974;42.664;23.264;2023-07-28T01:05:21;4.40;;;2.83;;
77040;SDS011;65974;42.664;23.264;2023-07-28T01:07:55;6.05;;;3.17;;
77040;SDS011;65974;42.664;23.264;2023-07-28T01:10:29;4.30;;;3.17;;
77040;SDS011;65974;42.664;23.264;2023-07-28T01:12:59;9.40;;;3.20;;
77040;SDS011;65974;42.664;23.264;2023-07-28T01:15:24;6.90;;;3.70;;
77040;SDS011;65974;42.664;23.264;2023-07-28T01:17:50;4.88;;;3.50;;
77040;SDS011;65974;42.664;23.264;2023-07-28T01:20:16;7.53;;;3.97;;
77040;SDS011;65974;42.664;23.264;2023-07-28T01:22:51;4.30;;;3.75;;
77040;SDS011;65974;42.664;23.264;2023-07-28T01:27:55;7.45;;;4.03;;
77040;SDS011;65974;42.664;23.264;2023-07-28T01:30:22;4.75;;;3.70;;
77040;SDS011;65974;42.664;23.264;2023-07-28T01:32:51;5.18;;;3.85;;
77040;SDS011;65974;42.664;23.264;2023-07-28T01:35:18;5.63;;;3.90;;
77040;SDS011;65974;42.664;23.264;2023-07-28T01:37:44;5.63;;;3.83;;
77040;SDS011;65974;42.664;23.264;2023-07-28T01:40:10;7.13;;;4.93;;
77040;SDS011;65974;42.664;23.264;2023-07-28T01:42:36;5.30;;;4.25;;
77040;SDS011;65974;42.664;23.264;2023-07-28T01:45:01;6.82;;;5.10;;
77040;SDS011;65974;42.664;23.264;2023-07-28T01:47:27;6.88;;;6.13;;
77040;SDS011;65974;42.664;23.264;2023-07-28T01:49:53;8.68;;;6.25;;
77040;SDS011;65974;42.664;23.264;2023-07-28T01:52:18;7.70;;;5.43;;
77040;SDS011;65974;42.664;23.264;2023-07-28T01:54:43;7.10;;;6.00;;
77040;SDS011;65974;42.664;23.264;2023-07-28T01:57:09;7.25;;;5.70;;
77040;SDS011;65974;42.664;23.264;2023-07-28T01:59:34;6.88;;;5.68;;
77040;SDS011;65974;42.664;23.264;2023-07-28T02:02:00;6.70;;;6.10;;
77040;SDS011;65974;42.664;23.264;2023-07-28T02:04:25;7.30;;;5.63;;
77040;SDS011;65974;42.664;23.264;2023-07-28T02:06:50;9.35;;;6.30;;
77040;SDS011;65974;42.664;23.264;2023-07-28T02:09:16;6.20;;;5.30;;
77040;SDS011;65974;42.664;23.264;2023-07-28T02:11:42;13.60;;;6.15;;
77040;SDS011;65974;42.664;23.264;2023-07-28T02:14:07;8.15;;;6.47;;
77040;SDS011;65974;42.664;23.264;2023-07-28T02:16:33;7.55;;;5.85;;
77040;SDS011;65974;42.664;23.264;2023-07-28T02:18:58;6.50;;;5.30;;
77040;SDS011;65974;42.664;23.264;2023-07-28T02:21:23;7.57;;;6.13;;
77040;SDS011;65974;42.664;23.264;2023-07-28T02:23:49;8.13;;;6.18;;
77040;SDS011;65974;42.664;23.264;2023-07-28T02:26:14;9.70;;;6.18;;
77040;SDS011;65974;42.664;23.264;2023-07-28T02:28:40;10.30;;;6.13;;
77040;SDS011;65974;42.664;23.264;2023-07-28T02:31:05;8.77;;;5.32;;
77040;SDS011;65974;42.664;23.264;2023-07-28T02:33:31;8.00;;;5.90;;
77040;SDS011;65974;42.664;23.264;2023-07-28T02:36:00;9.15;;;6.30;;
77040;SDS011;65974;42.664;23.264;2023-07-28T02:38:25;7.45;;;5.82;;
77040;SDS011;65974;42.664;23.264;2023-07-28T02:40:51;6.45;;;5.75;;
77040;SDS011;65974;42.664;23.264;2023-07-28T02:43:16;7.60;;;6.05;;
77040;SDS011;65974;42.664;23.264;2023-07-28T02:45:42;9.60;;;5.43;;
77040;SDS011;65974;42.664;23.264;2023-07-28T02:48:07;7.70;;;6.55;;
77040;SDS011;65974;42.664;23.264;2023-07-28T02:50:32;11.48;;;6.47;;
77040;SDS011;65974;42.664;23.264;2023-07-28T02:52:58;7.18;;;5.78;;
77040;SDS011;65974;42.664;23.264;2023-07-28T02:55:24;9.82;;;5.93;;
77040;SDS011;65974;42.664;23.264;2023-07-28T02:57:49;6.03;;;5.43;;
77040;SDS011;65974;42.664;23.264;2023-07-28T03:00:14;6.97;;;6.13;;
77040;SDS011;65974;42.664;23.264;2023-07-28T03:02:40;7.38;;;5.88;;
77040;SDS011;65974;42.664;23.264;2023-07-28T03:05:05;12.38;;;6.38;;
77040;SDS011;65974;42.664;23.264;2023-07-28T03:07:31;10.23;;;6.72;;
77040;SDS011;65974;42.664;23.264;2023-07-28T03:09:57;9.27;;;6.35;;
77040;SDS011;65974;42.664;23.264;2023-07-28T03:12:22;8.50;;;6.47;;
77040;SDS011;65974;42.664;23.264;2023-07-28T03:14:48;9.98;;;5.63;;
77040;SDS011;65974;42.664;23.264;2023-07-28T03:17:13;6.88;;;5.78;;
77040;SDS011;65974;42.664;23.264;2023-07-28T03:19:39;12.63;;;6.32;;
77040;SDS011;65974;42.664;23.264;2023-07-28T03:22:04;6.65;;;5.72;;
77040;SDS011;65974;42.664;23.264;2023-07-28T03:24:29;9.52;;;5.97;;
77040;SDS011;65974;42.664;23.264;2023-07-28T03:26:55;10.52;;;7.15;;
77040;SDS011;65974;42.664;23.264;2023-07-28T03:29:21;8.25;;;6.10;;
77040;SDS011;65974;42.664;23.264;2023-07-28T03:31:47;8.43;;;6.13;;
77040;SDS011;65974;42.664;23.264;2023-07-28T03:34:12;10.50;;;6.68;;
77040;SDS011;65974;42.664;23.264;2023-07-28T03:36:37;9.88;;;6.97;;
77040;SDS011;65974;42.664;23.264;2023-07-28T03:39:04;8.57;;;6.13;;
77040;SDS011;65974;42.664;23.264;2023-07-28T03:41:29;8.07;;;6.38;;
77040;SDS011;65974;42.664;23.264;2023-07-28T03:43:55;9.73;;;6.70;;
77040;SDS011;65974;42.664;23.264;2023-07-28T03:46:20;12.30;;;7.13;;
77040;SDS011;65974;42.664;23.264;2023-07-28T03:48:46;11.80;;;6.65;;
77040;SDS011;65974;42.664;23.264;2023-07-28T03:51:11;7.78;;;6.65;;
77040;SDS011;65974;42.664;23.264;2023-07-28T03:53:37;10.88;;;6.07;;
77040;SDS011;65974;42.664;23.264;2023-07-28T03:56:02;8.32;;;6.40;;
77040;SDS011;65974;42.664;23.264;2023-07-28T03:58:28;9.05;;;6.47;;
77040;SDS011;65974;42.664;23.264;2023-07-28T04:00:54;10.32;;;6.45;;
77040;SDS011;65974;42.664;23.264;2023-07-28T04:03:19;13.43;;;7.13;;
77040;SDS011;65974;42.664;23.264;2023-07-28T04:05:45;8.93;;;6.45;;
77040;SDS011;65974;42.664;23.264;2023-07-28T04:08:10;10.55;;;6.97;;
77040;SDS011;65974;42.664;23.264;2023-07-28T04:10:36;12.43;;;7.13;;
77040;SDS011;65974;42.664;23.264;2023-07-28T04:13:01;10.63;;;6.60;;
77040;SDS011;65974;42.664;23.264;2023-07-28T04:15:26;11.30;;;7.10;;
77040;SDS011;65974;42.664;23.264;2023-07-28T04:17:52;18.35;;;7.07;;
77040;SDS011;65974;42.664;23.264;2023-07-28T04:20:17;10.57;;;7.05;;
77040;SDS011;65974;42.664;23.264;2023-07-28T04:22:43;14.05;;;6.70;;
77040;SDS011;65974;42.664;23.264;2023-07-28T04:25:08;15.07;;;6.97;;
77040;SDS011;65974;42.664;23.264;2023-07-28T04:27:34;10.80;;;6.60;;
77040;SDS011;65974;42.664;23.264;2023-07-28T04:29:59;11.32;;;7.47;;
77040;SDS011;65974;42.664;23.264;2023-07-28T04:32:24;10.95;;;7.38;;
77040;SDS011;65974;42.664;23.264;2023-07-28T04:34:51;12.85;;;7.28;;
77040;SDS011;65974;42.664;23.264;2023-07-28T04:37:16;13.35;;;7.72;;
77040;SDS011;65974;42.664;23.264;2023-07-28T04:39:42;15.73;;;8.48;;
77040;SDS011;65974;42.664;23.264;2023-07-28T04:42:08;10.82;;;7.32;;
77040;SDS011;65974;42.664;23.264;2023-07-28T04:44:34;10.23;;;7.20;;
77040;SDS011;65974;42.664;23.264;2023-07-28T04:46:59;11.43;;;7.68;;
77040;SDS011;65974;42.664;23.264;2023-07-28T04:49:24;8.80;;;7.35;;
77040;SDS011;65974;42.664;23.264;2023-07-28T04:51:50;10.32;;;7.70;;
77040;SDS011;65974;42.664;23.264;2023-07-28T04:54:15;11.55;;;7.57;;
77040;SDS011;65974;42.664;23.264;2023-07-28T04:56:41;10.20;;;7.60;;
77040;SDS011;65974;42.664;23.264;2023-07-28T04:59:06;11.75;;;7.47;;
77040;SDS011;65974;42.664;23.264;2023-07-28T05:01:32;12.77;;;7.75;;
77040;SDS011;65974;42.664;23.264;2023-07-28T05:03:58;10.88;;;8.10;;
77040;SDS011;65974;42.664;23.264;2023-07-28T05:06:24;14.35;;;7.47;;
77040;SDS011;65974;42.664;23.264;2023-07-28T05:08:49;9.57;;;7.55;;
77040;SDS011;65974;42.664;23.264;2023-07-28T05:11:15;12.13;;;7.43;;
77040;SDS011;65974;42.664;23.264;2023-07-28T05:13:40;12.40;;;7.50;;
77040;SDS011;65974;42.664;23.264;2023-07-28T05:16:05;9.45;;;7.13;;
77040;SDS011;65974;42.664;23.264;2023-07-28T05:18:31;9.57;;;6.85;;
77040;SDS011;65974;42.664;23.264;2023-07-28T05:20:56;47.72;;;20.95;;
77040;SDS011;65974;42.664;23.264;2023-07-28T05:23:22;11.05;;;6.78;;
77040;SDS011;65974;42.664;23.264;2023-07-28T05:25:47;16.85;;;6.45;;
77040;SDS011;65974;42.664;23.264;2023-07-28T05:28:12;10.23;;;6.53;;
77040;SDS011;65974;42.664;23.264;2023-07-28T05:30:38;9.57;;;6.88;;
77040;SDS011;65974;42.664;23.264;2023-07-28T05:33:03;12.05;;;7.43;;
77040;SDS011;65974;42.664;23.264;2023-07-28T05:35:29;11.30;;;6.88;;
77040;SDS011;65974;42.664;23.264;2023-07-28T05:37:54;12.43;;;6.65;;
77040;SDS011;65974;42.664;23.264;2023-07-28T05:40:20;9.68;;;6.10;;
77040;SDS011;65974;42.664;23.264;2023-07-28T05:42:45;10.57;;;6.88;;
77040;SDS011;65974;42.664;23.264;2023-07-28T05:45:11;8.10;;;6.00;;
77040;SDS011;65974;42.664;23.264;2023-07-28T05:47:36;8.20;;;5.95;;
77040;SDS011;65974;42.664;23.264;2023-07-28T05:50:02;8.50;;;6.60;;
77040;SDS011;65974;42.664;23.264;2023-07-28T05:52:29;9.20;;;6.35;;
77040;SDS011;65974;42.664;23.264;2023-07-28T05:54:56;16.23;;;8.05;;
77040;SDS011;65974;42.664;23.264;2023-07-28T05:57:21;18.73;;;10.57;;
77040;SDS011;65974;42.664;23.264;2023-07-28T05:59:47;9.30;;;6.57;;
77040;SDS011;65974;42.664;23.264;2023-07-28T06:02:12;10.52;;;7.13;;
77040;SDS011;65974;42.664;23.264;2023-07-28T06:04:37;10.73;;;6.45;;
77040;SDS011;65974;42.664;23.264;2023-07-28T06:07:03;8.98;;;5.93;;
77040;SDS011;65974;42.664;23.264;2023-07-28T06:09:28;7.15;;;5.75;;
77040;SDS011;65974;42.664;23.264;2023-07-28T06:11:54;7.15;;;5.15;;
77040;SDS011;65974;42.664;23.264;2023-07-28T06:14:19;8.10;;;5.47;;
77040;SDS011;65974;42.664;23.264;2023-07-28T06:16:45;8.13;;;5.05;;
77040;SDS011;65974;42.664;23.264;2023-07-28T06:19:10;14.27;;;5.85;;
77040;SDS011;65974;42.664;23.264;2023-07-28T06:21:36;9.90;;;7.00;;
77040;SDS011;65974;42.664;23.264;2023-07-28T06:24:01;10.77;;;5.90;;
77040;SDS011;65974;42.664;23.264;2023-07-28T06:26:27;8.77;;;6.43;;
77040;SDS011;65974;42.664;23.264;2023-07-28T06:28:52;11.57;;;6.38;;
77040;SDS011;65974;42.664;23.264;2023-07-28T06:31:17;8.00;;;6.68;;
77040;SDS011;65974;42.664;23.264;2023-07-28T06:33:43;9.77;;;6.85;;
77040;SDS011;65974;42.664;23.264;2023-07-28T06:36:08;12.73;;;7.30;;
77040;SDS011;65974;42.664;23.264;2023-07-28T06:38:34;8.23;;;5.95;;
77040;SDS011;65974;42.664;23.264;2023-07-28T06:40:59;7.78;;;5.88;;
77040;SDS011;65974;42.664;23.264;2023-07-28T06:43:25;15.00;;;7.10;;
77040;SDS011;65974;42.664;23.264;2023-07-28T06:45:52;14.70;;;6.40;;
77040;SDS011;65974;42.664;23.264;2023-07-28T06:48:18;8.75;;;6.20;;
77040;SDS011;65974;42.664;23.264;2023-07-28T06:50:43;9.15;;;6.57;;
77040;SDS011;65974;42.664;23.264;2023-07-28T06:53:09;8.45;;;6.57;;
77040;SDS011;65974;42.664;23.264;2023-07-28T06:55:34;10.73;;;7.32;;
77040;SDS011;65974;42.664;23.264;2023-07-28T06:58:00;9.80;;;7.47;;
77040;SDS011;65974;42.664;23.264;2023-07-28T07:00:25;8.93;;;6.20;;
77040;SDS011;65974;42.664;23.264;2023-07-28T07:02:51;11.32;;;6.47;;
77040;SDS011;65974;42.664;23.264;2023-07-28T07:05:16;8.75;;;6.43;;
77040;SDS011;65974;42.664;23.264;2023-07-28T07:07:42;10.73;;;6.18;;
77040;SDS011;65974;42.664;23.264;2023-07-28T07:10:08;13.05;;;6.40;;
77040;SDS011;65974;42.664;23.264;2023-07-28T07:12:34;7.70;;;6.05;;
77040;SDS011;65974;42.664;23.264;2023-07-28T07:15:00;9.23;;;5.88;;
77040;SDS011;65974;42.664;23.264;2023-07-28T07:17:26;7.10;;;5.43;;
77040;SDS011;65974;42.664;23.264;2023-07-28T07:19:51;13.10;;;6.15;;
77040;SDS011;65974;42.664;23.264;2023-07-28T07:22:17;11.82;;;7.05;;
77040;SDS011;65974;42.664;23.264;2023-07-28T07:24:43;7.88;;;5.68;;
77040;SDS011;65974;42.664;23.264;2023-07-28T07:27:08;9.55;;;5.30;;
77040;SDS011;65974;42.664;23.264;2023-07-28T07:29:36;10.10;;;5.40;;
77040;SDS011;65974;42.664;23.264;2023-07-28T07:32:03;11.02;;;5.38;;
77040;SDS011;65974;42.664;23.264;2023-07-28T07:34:29;9.43;;;6.10;;
77040;SDS011;65974;42.664;23.264;2023-07-28T07:36:55;7.15;;;5.32;;
77040;SDS011;65974;42.664;23.264;2023-07-28T07:39:22;9.85;;;5.50;;
77040;SDS011;65974;42.664;23.264;2023-07-28T07:41:47;19.42;;;10.65;;
77040;SDS011;65974;42.664;23.264;2023-07-28T07:44:12;6.82;;;4.78;;
77040;SDS011;65974;42.664;23.264;2023-07-28T07:46:38;12.75;;;5.63;;
77040;SDS011;65974;42.664;23.264;2023-07-28T07:49:03;11.30;;;5.57;;
77040;SDS011;65974;42.664;23.264;2023-07-28T07:51:30;11.07;;;6.18;;
77040;SDS011;65974;42.664;23.264;2023-07-28T07:53:56;7.50;;;5.30;;
77040;SDS011;65974;42.664;23.264;2023-07-28T07:56:21;9.63;;;5.45;;
77040;SDS011;65974;42.664;23.264;2023-07-28T07:58:47;8.30;;;5.03;;
77040;SDS011;65974;42.664;23.264;2023-07-28T08:01:12;11.65;;;5.32;;
77040;SDS011;65974;42.664;23.264;2023-07-28T08:03:38;9.60;;;4.85;;
77040;SDS011;65974;42.664;23.264;2023-07-28T08:06:04;7.72;;;5.07;;
77040;SDS011;65974;42.664;23.264;2023-07-28T08:08:29;9.60;;;4.85;;
77040;SDS011;65974;42.664;23.264;2023-07-28T08:10:55;8.40;;;5.10;;
77040;SDS011;65974;42.664;23.264;2023-07-28T08:13:21;20.02;;;6.20;;
77040;SDS011;65974;42.664;23.264;2023-07-28T08:15:47;13.07;;;5.80;;
77040;SDS011;65974;42.664;23.264;2023-07-28T08:18:13;9.13;;;5.07;;
77040;SDS011;65974;42.664;23.264;2023-07-28T08:20:39;9.20;;;5.40;;
77040;SDS011;65974;42.664;23.264;2023-07-28T08:23:04;14.45;;;6.35;;
77040;SDS011;65974;42.664;23.264;2023-07-28T08:25:30;9.98;;;5.57;;
77040;SDS011;65974;42.664;23.264;2023-07-28T08:27:55;7.85;;;5.53;;
77040;SDS011;65974;42.664;23.264;2023-07-28T08:30:21;10.73;;;5.13;;
77040;SDS011;65974;42.664;23.264;2023-07-28T08:32:46;14.88;;;5.75;;
77040;SDS011;65974;42.664;23.264;2023-07-28T08:35:12;10.90;;;4.93;;
77040;SDS011;65974;42.664;23.264;2023-07-28T08:37:37;11.13;;;5.75;;
77040;SDS011;65974;42.664;23.264;2023-07-28T08:40:03;8.65;;;5.28;;
77040;SDS011;65974;42.664;23.264;2023-07-28T08:42:30;9.55;;;4.75;;
77040;SDS011;65974;42.664;23.264;2023-07-28T08:45:00;9.00;;;4.50;;
77040;SDS011;65974;42.664;23.264;2023-07-28T08:47:26;7.88;;;4.68;;
77040;SDS011;65974;42.664;23.264;2023-07-28T08:49:51;22.17;;;14.32;;
77040;SDS011;65974;42.664;23.264;2023-07-28T08:52:16;12.38;;;5.50;;
77040;SDS011;65974;42.664;23.264;2023-07-28T08:54:43;8.73;;;4.95;;
77040;SDS011;65974;42.664;23.264;2023-07-28T08:57:08;8.45;;;5.20;;
77040;SDS011;65974;42.664;23.264;2023-07-28T08:59:35;9.75;;;5.88;;
77040;SDS011;65974;42.664;23.264;2023-07-28T09:02:01;6.97;;;4.60;;
77040;SDS011;65974;42.664;23.264;2023-07-28T09:04:27;7.03;;;5.25;;
77040;SDS011;65974;42.664;23.264;2023-07-28T09:06:53;8.23;;;4.60;;
77040;SDS011;65974;42.664;23.264;2023-07-28T09:09:20;9.27;;;5.10;;
77040;SDS011;65974;42.664;23.264;2023-07-28T09:11:53;11.60;;;5.60;;
77040;SDS011;65974;42.664;23.264;2023-07-28T09:14:19;7.68;;;5.03;;
77040;SDS011;65974;42.664;23.264;2023-07-28T09:16:46;9.05;;;4.35;;
77040;SDS011;65974;42.664;23.264;2023-07-28T09:19:12;7.25;;;4.15;;
77040;SDS011;65974;42.664;23.264;2023-07-28T09:21:39;11.07;;;5.00;;
77040;SDS011;65974;42.664;23.264;2023-07-28T09:24:06;8.27;;;4.10;;
77040;SDS011;65974;42.664;23.264;2023-07-28T09:26:39;7.95;;;3.70;;
77040;SDS011;65974;42.664;23.264;2023-07-28T09:29:19;7.47;;;4.13;;
77040;SDS011;65974;42.664;23.264;2023-07-28T09:31:46;7.28;;;3.88;;
77040;SDS011;65974;42.664;23.264;2023-07-28T09:34:23;7.65;;;4.63;;
77040;SDS011;65974;42.664;23.264;2023-07-28T09:36:53;8.07;;;4.00;;
77040;SDS011;65974;42.664;23.264;2023-07-28T09:39:19;7.25;;;4.20;;
77040;SDS011;65974;42.664;23.264;2023-07-28T09:41:45;6.38;;;4.35;;
77040;SDS011;65974;42.664;23.264;2023-07-28T09:44:11;7.55;;;4.10;;
77040;SDS011;65974;42.664;23.264;2023-07-28T09:46:39;7.57;;;4.13;;
77040;SDS011;65974;42.664;23.264;2023-07-28T09:49:20;7.32;;;4.38;;
77040;SDS011;65974;42.664;23.264;2023-07-28T09:51:53;9.98;;;5.22;;
77040;SDS011;65974;42.664;23.264;2023-07-28T09:54:24;9.18;;;4.63;;
77040;SDS011;65974;42.664;23.264;2023-07-28T09:56:57;5.80;;;3.90;;
77040;SDS011;65974;42.664;23.264;2023-07-28T09:59:28;7.53;;;4.57;;
77040;SDS011;65974;42.664;23.264;2023-07-28T10:01:57;7.13;;;4.70;;
77040;SDS011;65974;42.664;23.264;2023-07-28T10:04:25;10.65;;;4.22;;
77040;SDS011;65974;42.664;23.264;2023-07-28T10:06:53;10.57;;;4.22;;
77040;SDS011;65974;42.664;23.264;2023-07-28T10:09:25;7.13;;;4.18;;
77040;SDS011;65974;42.664;23.264;2023-07-28T10:11:53;8.70;;;4.03;;
77040;SDS011;65974;42.664;23.264;2023-07-28T10:14:28;7.43;;;4.43;;
77040;SDS011;65974;42.664;23.264;2023-07-28T10:16:58;5.30;;;3.70;;
77040;SDS011;65974;42.664;23.264;2023-07-28T10:19:24;9.45;;;4.28;;
77040;SDS011;65974;42.664;23.264;2023-07-28T10:22:06;8.75;;;3.83;;
77040;SDS011;65974;42.664;23.264;2023-07-28T10:24:49;5.53;;;3.63;;
77040;SDS011;65974;42.664;23.264;2023-07-28T10:27:27;9.35;;;3.70;;
77040;SDS011;65974;42.664;23.264;2023-07-28T10:29:59;7.25;;;4.13;;
77040;SDS011;65974;42.664;23.264;2023-07-28T10:32:26;9.68;;;4.82;;
77040;SDS011;65974;42.664;23.264;2023-07-28T10:35:01;13.55;;;4.28;;
77040;SDS011;65974;42.664;23.264;2023-07-28T10:37:32;9.40;;;4.40;;
77040;SDS011;65974;42.664;23.264;2023-07-28T10:45:22;7.50;;;3.35;;
77040;SDS011;65974;42.664;23.264;2023-07-28T10:47:49;8.52;;;3.38;;
77040;SDS011;65974;42.664;23.264;2023-07-28T10:50:15;5.45;;;3.67;;
77040;SDS011;65974;42.664;23.264;2023-07-28T10:52:41;4.25;;;3.10;;
77040;SDS011;65974;42.664;23.264;2023-07-28T10:55:21;5.18;;;2.95;;
77040;SDS011;65974;42.664;23.264;2023-07-28T10:57:48;4.97;;;3.15;;
77040;SDS011;65974;42.664;23.264;2023-07-28T11:00:15;3.88;;;2.55;;
77040;SDS011;65974;42.664;23.264;2023-07-28T11:05:27;4.93;;;2.80;;
77040;SDS011;65974;42.664;23.264;2023-07-28T11:07:55;5.28;;;3.22;;
77040;SDS011;65974;42.664;23.264;2023-07-28T11:10:25;6.55;;;3.28;;
77040;SDS011;65974;42.664;23.264;2023-07-28T11:12:53;4.93;;;3.22;;
77040;SDS011;65974;42.664;23.264;2023-07-28T11:15:22;4.72;;;3.25;;
77040;SDS011;65974;42.664;23.264;2023-07-28T11:17:50;5.53;;;3.20;;
77040;SDS011;65974;42.664;23.264;2023-07-28T11:20:17;6.15;;;3.60;;
77040;SDS011;65974;42.664;23.264;2023-07-28T11:25:18;5.90;;;3.08;;
77040;SDS011;65974;42.664;23.264;2023-07-28T11:27:43;4.47;;;2.35;;
77040;SDS011;65974;42.664;23.264;2023-07-28T11:30:11;3.97;;;2.63;;
77040;SDS011;65974;42.664;23.264;2023-07-28T11:32:37;4.28;;;3.17;;
77040;SDS011;65974;42.664;23.264;2023-07-28T11:35:07;5.00;;;3.67;;
77040;SDS011;65974;42.664;23.264;2023-07-28T11:37:40;4.85;;;3.10;;
77040;SDS011;65974;42.664;23.264;2023-07-28T11:40:07;5.25;;;3.05;;
77040;SDS011;65974;42.664;23.264;2023-07-28T11:42:41;5.68;;;2.58;;
77040;SDS011;65974;42.664;23.264;2023-07-28T11:45:09;8.48;;;3.42;;
77040;SDS011;65974;42.664;23.264;2023-07-28T11:47:35;5.60;;;3.92;;
77040;SDS011;65974;42.664;23.264;2023-07-28T11:50:02;7.40;;;3.28;;
77040;SDS011;65974;42.664;23.264;2023-07-28T11:52:31;6.63;;;3.95;;
77040;SDS011;65974;42.664;23.264;2023-07-28T11:55:00;8.60;;;3.70;;
77040;SDS011;65974;42.664;23.264;2023-07-28T11:57:27;5.80;;;3.22;;
77040;SDS011;65974;42.664;23.264;2023-07-28T11:59:58;5.78;;;3.70;;
77040;SDS011;65974;42.664;23.264;2023-07-28T12:02:29;5.82;;;3.30;;
77040;SDS011;65974;42.664;23.264;2023-07-28T12:04:58;4.63;;;3.13;;
77040;SDS011;65974;42.664;23.264;2023-07-28T12:07:27;5.82;;;3.25;;
77040;SDS011;65974;42.664;23.264;2023-07-28T12:09:55;4.18;;;2.72;;
77040;SDS011;65974;42.664;23.264;2023-07-28T12:12:24;6.22;;;3.42;;
77040;SDS011;65974;42.664;23.264;2023-07-28T12:14:51;5.50;;;2.70;;
77040;SDS011;65974;42.664;23.264;2023-07-28T12:17:18;5.70;;;3.10;;
77040;SDS011;65974;42.664;23.264;2023-07-28T12:22:43;9.65;;;4.80;;
77040;SDS011;65974;42.664;23.264;2023-07-28T12:25:10;5.57;;;3.67;;
77040;SDS011;65974;42.664;23.264;2023-07-28T12:27:37;5.20;;;3.15;;
77040;SDS011;65974;42.664;23.264;2023-07-28T12:30:03;5.32;;;3.60;;
77040;SDS011;65974;42.664;23.264;2023-07-28T12:32:29;9.85;;;3.70;;
77040;SDS011;65974;42.664;23.264;2023-07-28T12:34:54;6.18;;;2.90;;
77040;SDS011;65974;42.664;23.264;2023-07-28T12:37:20;4.30;;;2.72;;
77040;SDS011;65974;42.664;23.264;2023-07-28T12:39:46;5.90;;;3.35;;
77040;SDS011;65974;42.664;23.264;2023-07-28T12:42:12;4.85;;;3.05;;
77040;SDS011;65974;42.664;23.264;2023-07-28T12:44:38;5.22;;;3.42;;
77040;SDS011;65974;42.664;23.264;2023-07-28T12:47:04;7.30;;;3.20;;
77040;SDS011;65974;42.664;23.264;2023-07-28T12:49:30;6.65;;;3.05;;
77040;SDS011;65974;42.664;23.264;2023-07-28T12:51:56;5.13;;;2.83;;
77040;SDS011;65974;42.664;23.264;2023-07-28T12:54:25;4.95;;;3.28;;
77040;SDS011;65974;42.664;23.264;2023-07-28T12:56:51;7.18;;;4.50;;
77040;SDS011;65974;42.664;23.264;2023-07-28T12:59:18;4.13;;;3.08;;
77040;SDS011;65974;42.664;23.264;2023-07-28T13:01:44;5.75;;;3.35;;
77040;SDS011;65974;42.664;23.264;2023-07-28T13:04:10;5.85;;;3.25;;
77040;SDS011;65974;42.664;23.264;2023-07-28T13:06:35;4.85;;;3.28;;
77040;SDS011;65974;42.664;23.264;2023-07-28T13:09:01;4.32;;;2.85;;
77040;SDS011;65974;42.664;23.264;2023-07-28T13:11:27;5.72;;;3.70;;
77040;SDS011;65974;42.664;23.264;2023-07-28T13:13:52;5.90;;;2.80;;
77040;SDS011;65974;42.664;23.264;2023-07-28T13:16:18;4.45;;;2.50;;
77040;SDS011;65974;42.664;23.264;2023-07-28T13:18:43;4.30;;;2.95;;
77040;SDS011;65974;42.664;23.264;2023-07-28T13:21:09;4.50;;;3.17;;
77040;SDS011;65974;42.664;23.264;2023-07-28T13:23:36;5.10;;;2.75;;
77040;SDS011;65974;42.664;23.264;2023-07-28T13:26:02;4.60;;;2.92;;
77040;SDS011;65974;42.664;23.264;2023-07-28T13:28:30;6.13;;;3.22;;
77040;SDS011;65974;42.664;23.264;2023-07-28T13:30:56;5.50;;;2.92;;
77040;SDS011;65974;42.664;23.264;2023-07-28T13:33:21;3.95;;;2.97;;
77040;SDS011;65974;42.664;23.264;2023-07-28T13:35:47;5.43;;;3.05;;
77040;SDS011;65974;42.664;23.264;2023-07-28T13:38:12;4.47;;;2.72;;
77040;SDS011;65974;42.664;23.264;2023-07-28T13:40:38;4.78;;;3.20;;
77040;SDS011;65974;42.664;23.264;2023-07-28T13:43:03;9.50;;;3.58;;
77040;SDS011;65974;42.664;23.264;2023-07-28T13:45:29;6.15;;;2.90;;
77040;SDS011;65974;42.664;23.264;2023-07-28T13:47:54;8.02;;;3.75;;
77040;SDS011;65974;42.664;23.264;2023-07-28T13:50:20;6.95;;;3.13;;
77040;SDS011;65974;42.664;23.264;2023-07-28T13:52:45;6.00;;;2.80;;
77040;SDS011;65974;42.664;23.264;2023-07-28T13:55:11;4.18;;;2.75;;
77040;SDS011;65974;42.664;23.264;2023-07-28T13:57:36;5.85;;;3.13;;
77040;SDS011;65974;42.664;23.264;2023-07-28T14:02:34;6.05;;;2.95;;
77040;SDS011;65974;42.664;23.264;2023-07-28T14:05:03;6.75;;;3.25;;
77040;SDS011;65974;42.664;23.264;2023-07-28T14:07:29;5.05;;;3.10;;
77040;SDS011;65974;42.664;23.264;2023-07-28T14:09:54;5.47;;;3.65;;
77040;SDS011;65974;42.664;23.264;2023-07-28T14:12:20;4.60;;;3.03;;
77040;SDS011;65974;42.664;23.264;2023-07-28T14:14:45;3.95;;;2.80;;
77040;SDS011;65974;42.664;23.264;2023-07-28T14:17:11;7.25;;;3.05;;
77040;SDS011;65974;42.664;23.264;2023-07-28T14:19:37;6.38;;;2.97;;
77040;SDS011;65974;42.664;23.264;2023-07-28T14:22:04;4.55;;;2.75;;
77040;SDS011;65974;42.664;23.264;2023-07-28T14:24:29;4.53;;;2.80;;
77040;SDS011;65974;42.664;23.264;2023-07-28T14:26:55;4.80;;;2.83;;
77040;SDS011;65974;42.664;23.264;2023-07-28T14:29:20;4.47;;;3.15;;
77040;SDS011;65974;42.664;23.264;2023-07-28T14:31:46;4.05;;;2.65;;
77040;SDS011;65974;42.664;23.264;2023-07-28T14:34:12;5.28;;;2.78;;
77040;SDS011;65974;42.664;23.264;2023-07-28T14:36:38;6.72;;;2.92;;
77040;SDS011;65974;42.664;23.264;2023-07-28T14:39:03;3.40;;;2.30;;
77040;SDS011;65974;42.664;23.264;2023-07-28T14:41:29;3.78;;;2.92;;
77040;SDS011;65974;42.664;23.264;2023-07-28T14:43:54;5.05;;;2.65;;
77040;SDS011;65974;42.664;23.264;2023-07-28T14:46:20;3.58;;;2.53;;